createdAt,value
2016-12-23T00:00:21.464Z,1030.69
2016-12-23T00:00:47.022Z,1030.73
2016-12-23T00:01:12.589Z,1030.68
2016-12-23T00:01:38.151Z,1030.68
2016-12-23T00:02:03.711Z,1030.7
2016-12-23T00:02:29.313Z,1030.65
2016-12-23T00:02:54.927Z,1030.63
2016-12-23T00:03:20.475Z,1030.67
2016-12-23T00:03:46.167Z,1030.63
2016-12-23T00:04:11.788Z,1030.59
2016-12-23T00:04:37.367Z,1030.61
2016-12-23T00:05:02.984Z,1030.55
2016-12-23T00:05:28.597Z,1030.54
2016-12-23T00:05:54.161Z,1030.58
2016-12-23T00:06:19.777Z,1030.55
2016-12-23T00:06:45.361Z,1030.55
2016-12-23T00:07:10.913Z,1030.58
2016-12-23T00:07:36.486Z,1030.5
2016-12-23T00:08:02.115Z,1030.56
2016-12-23T00:08:27.663Z,1030.63
2016-12-23T00:08:53.243Z,1030.57
2016-12-23T00:09:18.788Z,1030.57
2016-12-23T00:09:44.354Z,1030.58
2016-12-23T00:10:09.908Z,1030.65
2016-12-23T00:10:35.489Z,1030.66
2016-12-23T00:11:01.060Z,1030.63
2016-12-23T00:11:26.628Z,1030.62
2016-12-23T00:11:52.312Z,1030.65
2016-12-23T00:12:17.881Z,1030.65
2016-12-23T00:12:43.457Z,1030.72
2016-12-23T00:13:09.009Z,1030.66
2016-12-23T00:13:34.612Z,1030.7
2016-12-23T00:14:00.171Z,1030.71
2016-12-23T00:14:25.736Z,1030.75
2016-12-23T00:14:51.299Z,1030.7
2016-12-23T00:15:16.855Z,1030.73
2016-12-23T00:15:42.462Z,1030.78
2016-12-23T00:16:08.057Z,1030.77
2016-12-23T00:16:33.606Z,1030.77
2016-12-23T00:16:59.180Z,1030.78
2016-12-23T00:17:24.835Z,1030.81
2016-12-23T00:17:50.398Z,1030.79
2016-12-23T00:18:15.966Z,1030.78
2016-12-23T00:18:41.548Z,1030.79
2016-12-23T00:19:07.119Z,1030.76
2016-12-23T00:19:32.688Z,1030.8
2016-12-23T00:19:58.248Z,1030.81
2016-12-23T00:20:23.803Z,1030.75
2016-12-23T00:20:49.488Z,1030.8
2016-12-23T00:21:15.056Z,1030.76
2016-12-23T00:21:40.627Z,1030.71
2016-12-23T00:22:06.217Z,1030.78
2016-12-23T00:22:31.915Z,1030.81
2016-12-23T00:22:57.470Z,1030.81
2016-12-23T00:23:23.038Z,1030.8
2016-12-23T00:24:37.049Z,1030.86
2016-12-23T00:25:02.639Z,1030.9
2016-12-23T00:25:28.203Z,1030.91
2016-12-23T00:25:53.829Z,1030.87
2016-12-23T00:26:19.395Z,1030.92
2016-12-23T00:26:45.017Z,1030.87
2016-12-23T00:27:10.569Z,1030.9
2016-12-23T00:27:36.146Z,1030.89
2016-12-23T00:28:01.802Z,1030.9
2016-12-23T00:28:27.351Z,1030.91
2016-12-23T00:28:52.922Z,1030.9
2016-12-23T00:29:18.485Z,1030.89
2016-12-23T00:29:44.074Z,1030.84
2016-12-23T00:30:09.639Z,1030.87
2016-12-23T00:30:35.190Z,1030.82
2016-12-23T00:31:00.750Z,1030.78
2016-12-23T00:31:26.317Z,1030.79
2016-12-23T00:31:51.989Z,1030.82
2016-12-23T00:32:17.599Z,1030.83
2016-12-23T00:32:43.168Z,1030.79
2016-12-23T00:33:08.723Z,1030.84
2016-12-23T00:33:34.303Z,1030.8
2016-12-23T00:33:59.850Z,1030.78
2016-12-23T00:34:25.415Z,1030.8
2016-12-23T00:34:50.979Z,1030.82
2016-12-23T00:35:16.555Z,1030.81
2016-12-23T00:35:42.111Z,1030.8
2016-12-23T00:36:07.683Z,1030.84
2016-12-23T00:36:33.247Z,1030.82
2016-12-23T00:36:58.797Z,1030.87
2016-12-23T00:37:24.389Z,1030.88
2016-12-23T00:37:49.967Z,1030.88
2016-12-23T00:38:15.518Z,1030.91
2016-12-23T00:38:41.075Z,1030.88
2016-12-23T00:39:06.654Z,1030.9
2016-12-23T00:39:32.333Z,1030.86
2016-12-23T00:39:57.914Z,1030.92
2016-12-23T00:40:23.453Z,1030.97
2016-12-23T00:40:49.024Z,1030.91
2016-12-23T00:41:14.573Z,1030.9
2016-12-23T00:41:40.157Z,1030.94
2016-12-23T00:42:05.727Z,1030.97
2016-12-23T00:42:31.299Z,1030.96
2016-12-23T00:42:56.874Z,1030.98
2016-12-23T00:43:22.483Z,1030.97
2016-12-23T00:43:48.039Z,1030.99
2016-12-23T00:44:13.611Z,1031.04
2016-12-23T00:44:39.180Z,1031.03
2016-12-23T00:45:04.733Z,1031.04
2016-12-23T00:45:30.297Z,1031.06
2016-12-23T00:45:55.858Z,1031.06
2016-12-23T00:46:21.429Z,1031.1
2016-12-23T00:46:46.992Z,1031.15
2016-12-23T00:47:50.794Z,1031.08
2016-12-23T00:48:16.350Z,1031.05
2016-12-23T00:48:41.912Z,1031.05
2016-12-23T00:49:07.488Z,1031.04
2016-12-23T00:49:33.045Z,1031.03
2016-12-23T00:49:58.604Z,1031.09
2016-12-23T00:50:24.189Z,1031.08
2016-12-23T00:50:49.756Z,1031.08
2016-12-23T00:51:15.329Z,1031.11
2016-12-23T00:51:40.906Z,1031.11
2016-12-23T00:52:06.484Z,1031.11
2016-12-23T00:52:32.099Z,1031.11
2016-12-23T00:52:57.663Z,1031.09
2016-12-23T00:53:23.227Z,1031.07
2016-12-23T00:53:48.901Z,1031.14
2016-12-23T00:54:14.516Z,1031.1
2016-12-23T00:54:40.068Z,1031.03
2016-12-23T00:55:05.630Z,1031.02
2016-12-23T00:55:31.247Z,1031.01
2016-12-23T00:55:56.808Z,1030.99
2016-12-23T00:56:22.381Z,1030.99
2016-12-23T00:56:48.045Z,1030.98
2016-12-23T00:57:13.631Z,1030.99
2016-12-23T00:57:39.195Z,1030.99
2016-12-23T00:58:04.758Z,1030.97
2016-12-23T00:58:30.442Z,1031.01
2016-12-23T00:58:56.025Z,1031.01
2016-12-23T00:59:21.594Z,1031
2016-12-23T00:59:47.244Z,1030.99
2016-12-23T01:00:12.802Z,1031.01
2016-12-23T01:00:38.388Z,1030.98
2016-12-23T01:01:03.914Z,1031.01
2016-12-23T01:01:29.468Z,1030.98
2016-12-23T01:01:55.060Z,1030.97
2016-12-23T01:02:20.656Z,1030.95
2016-12-23T01:02:46.208Z,1030.97
2016-12-23T01:03:11.785Z,1030.94
2016-12-23T01:03:37.511Z,1030.94
2016-12-23T01:04:03.085Z,1030.93
2016-12-23T01:04:28.658Z,1030.94
2016-12-23T01:04:54.277Z,1030.94
2016-12-23T01:05:19.919Z,1030.95
2016-12-23T01:05:45.489Z,1030.96
2016-12-23T01:06:11.095Z,1030.96
2016-12-23T01:06:36.719Z,1030.93
2016-12-23T01:07:02.274Z,1030.93
2016-12-23T01:07:27.892Z,1030.91
2016-12-23T01:07:53.454Z,1030.95
2016-12-23T01:08:19.031Z,1030.95
2016-12-23T01:08:44.601Z,1030.94
2016-12-23T01:09:10.222Z,1030.98
2016-12-23T01:09:35.768Z,1031
2016-12-23T01:10:01.325Z,1030.98
2016-12-23T01:10:26.895Z,1030.99
2016-12-23T01:10:52.470Z,1031
2016-12-23T01:11:18.077Z,1031.02
2016-12-23T01:11:43.628Z,1030.99
2016-12-23T01:12:09.194Z,1031
2016-12-23T01:13:28.292Z,1031.01
2016-12-23T01:13:53.868Z,1031.04
2016-12-23T01:14:19.442Z,1031.07
2016-12-23T01:14:45.097Z,1031.02
2016-12-23T01:15:10.653Z,1031.09
2016-12-23T01:15:36.230Z,1031.09
2016-12-23T01:16:01.780Z,1031.09
2016-12-23T01:16:27.367Z,1031.11
2016-12-23T01:16:52.932Z,1031.11
2016-12-23T01:17:18.519Z,1031.1
2016-12-23T01:17:44.230Z,1031.1
2016-12-23T01:18:09.796Z,1031.1
2016-12-23T01:18:35.380Z,1031.08
2016-12-23T01:19:01.034Z,1031.11
2016-12-23T01:19:26.657Z,1031.07
2016-12-23T01:19:52.233Z,1031.07
2016-12-23T01:20:17.791Z,1031.05
2016-12-23T01:20:43.448Z,1031.07
2016-12-23T01:21:09.010Z,1031.08
2016-12-23T01:21:34.579Z,1031.07
2016-12-23T01:22:00.278Z,1031.01
2016-12-23T01:22:25.915Z,1031.02
2016-12-23T01:22:51.479Z,1031.02
2016-12-23T01:23:17.052Z,1031.02
2016-12-23T01:23:42.630Z,1031.02
2016-12-23T01:24:08.188Z,1031.09
2016-12-23T01:24:33.839Z,1031.11
2016-12-23T01:24:59.491Z,1031.08
2016-12-23T01:25:25.057Z,1031.08
2016-12-23T01:25:50.606Z,1031.09
2016-12-23T01:26:16.282Z,1031.05
2016-12-23T01:26:41.857Z,1031.04
2016-12-23T01:27:07.410Z,1031.06
2016-12-23T01:27:33.044Z,1031.07
2016-12-23T01:27:58.663Z,1031.07
2016-12-23T01:28:24.247Z,1031.1
2016-12-23T01:28:49.820Z,1031.05
2016-12-23T01:29:15.399Z,1031.07
2016-12-23T01:29:40.939Z,1031.07
2016-12-23T01:30:06.502Z,1031.09
2016-12-23T01:30:32.067Z,1031.12
2016-12-23T01:30:57.622Z,1031.08
2016-12-23T01:31:23.276Z,1031.1
2016-12-23T01:31:48.849Z,1031.1
2016-12-23T01:32:14.427Z,1031.12
2016-12-23T01:32:39.980Z,1031.09
2016-12-23T01:33:05.582Z,1031.03
2016-12-23T01:33:31.147Z,1031.08
2016-12-23T01:33:56.715Z,1031.05
2016-12-23T01:34:22.291Z,1031.07
2016-12-23T01:34:47.852Z,1031.04
2016-12-23T01:35:13.417Z,1031.07
2016-12-23T01:35:39.075Z,1031.01
2016-12-23T01:36:04.638Z,1031.08
2016-12-23T01:36:30.207Z,1031.07
2016-12-23T01:36:55.753Z,1031.04
2016-12-23T01:37:21.318Z,1031.05
2016-12-23T01:37:46.872Z,1031.03
2016-12-23T01:38:12.444Z,1031.06
2016-12-23T01:38:38.017Z,1031.09
2016-12-23T01:39:03.572Z,1031.05
2016-12-23T01:39:29.131Z,1031.04
2016-12-23T01:39:54.814Z,1031.06
2016-12-23T01:40:20.412Z,1031.04
2016-12-23T01:40:45.982Z,1031.06
2016-12-23T01:41:11.540Z,1031.15
2016-12-23T01:41:37.128Z,1031.08
2016-12-23T01:42:02.671Z,1031.07
2016-12-23T01:42:28.241Z,1031.08
2016-12-23T01:42:53.822Z,1031.06
2016-12-23T01:43:19.383Z,1031.06
2016-12-23T01:43:44.961Z,1031.06
2016-12-23T01:44:10.510Z,1031.01
2016-12-23T01:44:36.081Z,1031.04
2016-12-23T01:45:01.746Z,1031.04
2016-12-23T01:45:27.334Z,1031.04
2016-12-23T01:45:52.884Z,1031.04
2016-12-23T01:46:18.447Z,1031.07
2016-12-23T01:46:44.044Z,1031.08
2016-12-23T01:47:09.618Z,1031.13
2016-12-23T01:47:35.188Z,1031.13
2016-12-23T01:48:00.761Z,1031.06
2016-12-23T01:48:26.345Z,1031.13
2016-12-23T01:48:51.990Z,1031.1
2016-12-23T01:49:17.571Z,1031.08
2016-12-23T01:49:43.147Z,1031.12
2016-12-23T01:50:08.707Z,1031.16
2016-12-23T01:50:34.388Z,1031.16
2016-12-23T01:50:59.982Z,1031.16
2016-12-23T01:51:25.550Z,1031.17
2016-12-23T01:51:51.151Z,1031.11
2016-12-23T01:52:16.749Z,1031.14
2016-12-23T01:52:42.313Z,1031.18
2016-12-23T01:53:07.974Z,1031.1
2016-12-23T01:53:33.550Z,1031.15
2016-12-23T01:53:59.116Z,1031.15
2016-12-23T01:54:24.675Z,1031.16
2016-12-23T01:54:50.251Z,1031.19
2016-12-23T01:55:15.965Z,1031.19
2016-12-23T01:55:41.521Z,1031.15
2016-12-23T01:56:07.081Z,1031.24
2016-12-23T01:56:32.650Z,1031.21
2016-12-23T01:56:58.220Z,1031.22
2016-12-23T01:57:23.776Z,1031.24
2016-12-23T01:57:49.340Z,1031.24
2016-12-23T01:58:14.986Z,1031.21
2016-12-23T01:58:40.593Z,1031.29
2016-12-23T01:59:06.160Z,1031.28
2016-12-23T02:00:20.140Z,1031.26
2016-12-23T02:00:45.697Z,1031.23
2016-12-23T02:01:11.269Z,1031.22
2016-12-23T02:01:36.831Z,1031.26
2016-12-23T02:02:02.400Z,1031.24
2016-12-23T02:02:27.949Z,1031.26
2016-12-23T02:02:53.520Z,1031.21
2016-12-23T02:03:19.076Z,1031.23
2016-12-23T02:03:44.626Z,1031.25
2016-12-23T02:04:10.204Z,1031.23
2016-12-23T02:04:35.837Z,1031.27
2016-12-23T02:05:01.396Z,1031.25
2016-12-23T02:05:27.090Z,1031.27
2016-12-23T02:05:52.663Z,1031.27
2016-12-23T02:06:18.269Z,1031.31
2016-12-23T02:06:43.858Z,1031.28
2016-12-23T02:07:09.421Z,1031.21
2016-12-23T02:07:34.988Z,1031.28
2016-12-23T02:08:00.568Z,1031.3
2016-12-23T02:08:26.217Z,1031.26
2016-12-23T02:08:51.778Z,1031.24
2016-12-23T02:09:17.349Z,1031.3
2016-12-23T02:09:42.912Z,1031.22
2016-12-23T02:10:08.479Z,1031.19
2016-12-23T02:10:34.027Z,1031.23
2016-12-23T02:10:59.583Z,1031.2
2016-12-23T02:11:25.145Z,1031.22
2016-12-23T02:11:50.713Z,1031.22
2016-12-23T02:12:16.387Z,1031.22
2016-12-23T02:12:41.949Z,1031.15
2016-12-23T02:13:07.533Z,1031.22
2016-12-23T02:13:33.212Z,1031.25
2016-12-23T02:13:58.875Z,1031.26
2016-12-23T02:14:24.434Z,1031.22
2016-12-23T02:14:50.007Z,1031.25
2016-12-23T02:15:15.639Z,1031.23
2016-12-23T02:15:41.206Z,1031.13
2016-12-23T02:16:06.785Z,1031.18
2016-12-23T02:16:32.341Z,1031.2
2016-12-23T02:16:57.958Z,1031.23
2016-12-23T02:17:23.534Z,1031.19
2016-12-23T02:17:49.083Z,1031.23
2016-12-23T02:18:14.626Z,1031.2
2016-12-23T02:18:40.220Z,1031.21
2016-12-23T02:19:05.832Z,1031.24
2016-12-23T02:19:31.396Z,1031.22
2016-12-23T02:19:57.003Z,1031.25
2016-12-23T02:20:22.634Z,1031.18
2016-12-23T02:20:48.181Z,1031.26
2016-12-23T02:21:13.728Z,1031.26
2016-12-23T02:21:39.397Z,1031.28
2016-12-23T02:22:04.955Z,1031.2
2016-12-23T02:22:30.523Z,1031.23
2016-12-23T02:22:56.168Z,1031.29
2016-12-23T02:23:21.750Z,1031.24
2016-12-23T02:23:47.313Z,1031.22
2016-12-23T02:24:12.891Z,1031.19
2016-12-23T02:24:38.454Z,1031.24
2016-12-23T02:25:37.117Z,1031.2
2016-12-23T02:26:02.683Z,1031.19
2016-12-23T02:26:28.235Z,1031.25
2016-12-23T02:26:53.923Z,1031.24
2016-12-23T02:27:19.485Z,1031.21
2016-12-23T02:27:45.045Z,1031.27
2016-12-23T02:28:10.605Z,1031.22
2016-12-23T02:28:36.171Z,1031.29
2016-12-23T02:29:44.922Z,1031.29
2016-12-23T02:30:53.710Z,1031.21
2016-12-23T02:31:19.286Z,1031.22
2016-12-23T02:31:44.846Z,1031.28
2016-12-23T02:32:10.409Z,1031.26
2016-12-23T02:32:36.046Z,1031.25
2016-12-23T02:33:01.635Z,1031.26
2016-12-23T02:33:27.203Z,1031.28
2016-12-23T02:33:52.768Z,1031.3
2016-12-23T02:34:18.303Z,1031.28
2016-12-23T02:34:43.859Z,1031.31
2016-12-23T02:35:09.441Z,1031.33
2016-12-23T02:35:34.996Z,1031.28
2016-12-23T02:36:00.566Z,1031.28
2016-12-23T02:36:26.156Z,1031.25
2016-12-23T02:36:51.737Z,1031.25
2016-12-23T02:37:17.294Z,1031.22
2016-12-23T02:37:42.851Z,1031.24
2016-12-23T02:38:08.398Z,1031.25
2016-12-23T02:38:33.950Z,1031.22
2016-12-23T02:38:59.561Z,1031.2
2016-12-23T02:39:25.132Z,1031.21
2016-12-23T02:39:50.686Z,1031.21
2016-12-23T02:40:16.300Z,1031.19
2016-12-23T02:41:14.948Z,1031.19
2016-12-23T02:41:40.495Z,1031.13
2016-12-23T02:42:06.080Z,1031.12
2016-12-23T02:42:31.706Z,1031.13
2016-12-23T02:42:57.266Z,1031.12
2016-12-23T02:43:22.838Z,1031.14
2016-12-23T02:43:48.427Z,1031.15
2016-12-23T02:44:13.990Z,1031.09
2016-12-23T02:44:39.548Z,1031.14
2016-12-23T02:45:05.127Z,1031.19
2016-12-23T02:45:30.748Z,1031.21
2016-12-23T02:46:29.340Z,1031.19
2016-12-23T02:46:54.899Z,1031.22
2016-12-23T02:47:20.470Z,1031.26
2016-12-23T02:47:46.020Z,1031.22
2016-12-23T02:48:11.575Z,1031.2
2016-12-23T02:48:37.137Z,1031.23
2016-12-23T02:49:02.707Z,1031.21
2016-12-23T02:49:28.353Z,1031.22
2016-12-23T02:49:53.966Z,1031.25
2016-12-23T02:50:19.529Z,1031.22
2016-12-23T02:50:45.138Z,1031.22
2016-12-23T02:51:10.708Z,1031.21
2016-12-23T02:51:36.263Z,1031.24
2016-12-23T02:52:01.843Z,1031.26
2016-12-23T02:52:27.407Z,1031.26
2016-12-23T02:52:52.963Z,1031.24
2016-12-23T02:53:18.550Z,1031.25
2016-12-23T02:53:44.098Z,1031.28
2016-12-23T02:54:58.075Z,1031.32
2016-12-23T02:55:23.638Z,1031.29
2016-12-23T02:55:49.190Z,1031.3
2016-12-23T02:56:14.755Z,1031.27
2016-12-23T02:56:40.430Z,1031.28
2016-12-23T02:57:05.979Z,1031.27
2016-12-23T02:57:31.552Z,1031.28
2016-12-23T02:58:50.687Z,1031.25
2016-12-23T02:59:16.268Z,1031.21
2016-12-23T02:59:41.868Z,1031.27
2016-12-23T03:00:07.451Z,1031.23
2016-12-23T03:00:33.038Z,1031.22
2016-12-23T03:00:58.591Z,1031.25
2016-12-23T03:01:24.137Z,1031.14
2016-12-23T03:01:49.707Z,1031.2
2016-12-23T03:02:15.258Z,1031.22
2016-12-23T03:02:40.836Z,1031.21
2016-12-23T03:03:06.413Z,1031.16
2016-12-23T03:03:32.046Z,1031.19
2016-12-23T03:04:51.124Z,1031.24
2016-12-23T03:05:16.713Z,1031.18
2016-12-23T03:05:42.259Z,1031.12
2016-12-23T03:06:07.804Z,1031.15
2016-12-23T03:06:33.353Z,1031.15
2016-12-23T03:06:58.905Z,1031.18
2016-12-23T03:07:24.559Z,1031.14
2016-12-23T03:07:50.113Z,1031.14
2016-12-23T03:08:15.675Z,1031.15
2016-12-23T03:08:41.238Z,1031.11
2016-12-23T03:09:06.801Z,1031.14
2016-12-23T03:09:32.369Z,1031.12
2016-12-23T03:09:57.917Z,1031.18
2016-12-23T03:10:23.486Z,1031.14
2016-12-23T03:10:49.160Z,1031.14
2016-12-23T03:11:14.712Z,1031.17
2016-12-23T03:11:40.283Z,1031.22
2016-12-23T03:12:05.846Z,1031.22
2016-12-23T03:12:31.426Z,1031.18
2016-12-23T03:12:56.973Z,1031.2
2016-12-23T03:13:22.590Z,1031.22
2016-12-23T03:13:48.158Z,1031.14
2016-12-23T03:14:13.717Z,1031.13
2016-12-23T03:14:39.287Z,1031.07
2016-12-23T03:15:04.850Z,1031.09
2016-12-23T03:15:30.410Z,1031.08
2016-12-23T03:15:55.959Z,1031.12
2016-12-23T03:16:21.534Z,1031.08
2016-12-23T03:16:47.110Z,1031.11
2016-12-23T03:17:12.705Z,1031.09
2016-12-23T03:17:38.269Z,1031.05
2016-12-23T03:18:03.835Z,1031.11
2016-12-23T03:18:29.403Z,1031.08
2016-12-23T03:18:55.079Z,1031.09
2016-12-23T03:19:20.638Z,1031.04
2016-12-23T03:19:46.252Z,1031.09
2016-12-23T03:20:11.950Z,1031.06
2016-12-23T03:20:37.510Z,1031.07
2016-12-23T03:21:03.179Z,1031.1
2016-12-23T03:21:28.785Z,1031.16
2016-12-23T03:21:54.364Z,1031.13
2016-12-23T03:22:19.951Z,1031.15
2016-12-23T03:22:45.572Z,1031.12
2016-12-23T03:23:11.148Z,1031.1
2016-12-23T03:23:36.702Z,1031.12
2016-12-23T03:24:02.263Z,1031.05
2016-12-23T03:24:27.838Z,1031.13
2016-12-23T03:24:53.412Z,1031.08
2016-12-23T03:25:19.052Z,1031.06
2016-12-23T03:25:44.622Z,1031.07
2016-12-23T03:26:10.195Z,1031.07
2016-12-23T03:26:35.758Z,1031.12
2016-12-23T03:27:01.304Z,1031.03
2016-12-23T03:27:26.873Z,1031.1
2016-12-23T03:27:52.542Z,1031.07
2016-12-23T03:28:18.097Z,1031.11
2016-12-23T03:28:43.662Z,1031.11
2016-12-23T03:29:09.329Z,1031.06
2016-12-23T03:29:34.899Z,1031.04
2016-12-23T03:30:00.468Z,1031.03
2016-12-23T03:30:26.089Z,1031.1
2016-12-23T03:30:51.647Z,1031.12
2016-12-23T03:31:17.201Z,1031.07
2016-12-23T03:31:42.902Z,1031.13
2016-12-23T03:32:08.470Z,1031.12
2016-12-23T03:32:34.038Z,1031.13
2016-12-23T03:32:59.651Z,1031.11
2016-12-23T03:33:25.225Z,1031.13
2016-12-23T03:33:50.809Z,1031.12
2016-12-23T03:34:16.368Z,1031.09
2016-12-23T03:34:41.940Z,1031.12
2016-12-23T03:35:07.515Z,1031
2016-12-23T03:35:33.133Z,1031.13
2016-12-23T03:36:47.106Z,1031.13
2016-12-23T03:37:12.693Z,1031.06
2016-12-23T03:37:38.250Z,1031.1
2016-12-23T03:38:03.804Z,1031.07
2016-12-23T03:38:29.365Z,1031.06
2016-12-23T03:38:54.922Z,1031.13
2016-12-23T03:39:20.483Z,1031.12
2016-12-23T03:40:29.273Z,1031.06
2016-12-23T03:40:54.889Z,1031.1
2016-12-23T03:41:20.447Z,1031.07
2016-12-23T03:41:45.998Z,1031.08
2016-12-23T03:42:11.549Z,1031.06
2016-12-23T03:42:37.137Z,1031.06
2016-12-23T03:43:02.708Z,1031.04
2016-12-23T03:43:28.278Z,1031.09
2016-12-23T03:43:53.848Z,1031.08
2016-12-23T03:44:19.412Z,1031.1
2016-12-23T03:44:44.987Z,1031.08
2016-12-23T03:45:10.670Z,1031.12
2016-12-23T03:45:36.237Z,1031.12
2016-12-23T03:46:01.882Z,1031.12
2016-12-23T03:46:27.465Z,1031.12
2016-12-23T03:46:53.029Z,1031.11
2016-12-23T03:47:18.584Z,1031.16
2016-12-23T03:47:44.197Z,1031.17
2016-12-23T03:48:09.744Z,1031.2
2016-12-23T03:48:35.303Z,1031.17
2016-12-23T03:49:00.872Z,1031.16
2016-12-23T03:49:26.474Z,1031.16
2016-12-23T03:49:52.024Z,1031.17
2016-12-23T03:50:17.677Z,1031.15
2016-12-23T03:50:43.238Z,1031.12
2016-12-23T03:51:08.795Z,1031.1
2016-12-23T03:51:34.485Z,1031.14
2016-12-23T03:52:00.061Z,1031.1
2016-12-23T03:52:25.628Z,1031.12
2016-12-23T03:52:51.323Z,1031.08
2016-12-23T03:53:16.899Z,1031.08
2016-12-23T03:53:42.477Z,1031.12
2016-12-23T03:54:08.039Z,1031.11
2016-12-23T03:54:33.659Z,1031.12
2016-12-23T03:54:59.226Z,1031.13
2016-12-23T03:55:24.783Z,1031.16
2016-12-23T03:55:50.330Z,1031.17
2016-12-23T03:56:15.886Z,1031.19
2016-12-23T03:56:41.501Z,1031.19
2016-12-23T03:57:07.053Z,1031.17
2016-12-23T03:57:32.619Z,1031.18
2016-12-23T03:57:58.315Z,1031.14
2016-12-23T03:58:23.871Z,1031.15
2016-12-23T03:58:49.416Z,1031.17
2016-12-23T03:59:15.138Z,1031.15
2016-12-23T03:59:40.697Z,1031.21
2016-12-23T04:00:06.260Z,1031.12
2016-12-23T04:00:31.842Z,1031.13
2016-12-23T04:00:57.491Z,1031.1
2016-12-23T04:01:23.054Z,1031.08
2016-12-23T04:01:48.611Z,1031.13
2016-12-23T04:02:14.274Z,1031.11
2016-12-23T04:02:39.838Z,1031.13
2016-12-23T04:03:05.409Z,1031.11
2016-12-23T04:03:30.984Z,1031.19
2016-12-23T04:03:56.632Z,1031.22
2016-12-23T04:04:22.197Z,1031.18
2016-12-23T04:04:47.762Z,1031.25
2016-12-23T04:05:13.344Z,1031.22
2016-12-23T04:05:39.051Z,1031.23
2016-12-23T04:06:04.622Z,1031.24
2016-12-23T04:06:30.288Z,1031.22
2016-12-23T04:06:55.858Z,1031.25
2016-12-23T04:07:21.418Z,1031.22
2016-12-23T04:07:46.995Z,1031.24
2016-12-23T04:08:12.730Z,1031.21
2016-12-23T04:08:38.295Z,1031.24
2016-12-23T04:09:03.940Z,1031.21
2016-12-23T04:09:29.510Z,1031.19
2016-12-23T04:09:55.055Z,1031.2
2016-12-23T04:10:20.642Z,1031.23
2016-12-23T04:10:46.354Z,1031.21
2016-12-23T04:11:11.906Z,1031.24
2016-12-23T04:11:37.469Z,1031.22
2016-12-23T04:12:03.037Z,1031.25
2016-12-23T04:12:28.586Z,1031.22
2016-12-23T04:12:54.183Z,1031.24
2016-12-23T04:13:19.735Z,1031.3
2016-12-23T04:13:45.314Z,1031.31
2016-12-23T04:14:10.879Z,1031.28
2016-12-23T04:14:36.499Z,1031.23
2016-12-23T04:15:02.060Z,1031.27
2016-12-23T04:15:27.627Z,1031.23
2016-12-23T04:15:53.285Z,1031.27
2016-12-23T04:16:18.901Z,1031.27
2016-12-23T04:16:44.487Z,1031.27
2016-12-23T04:17:10.108Z,1031.22
2016-12-23T04:17:35.697Z,1031.24
2016-12-23T04:18:01.269Z,1031.28
2016-12-23T04:18:26.945Z,1031.32
2016-12-23T04:18:52.498Z,1031.27
2016-12-23T04:19:18.063Z,1031.28
2016-12-23T04:19:43.642Z,1031.31
2016-12-23T04:20:09.286Z,1031.28
2016-12-23T04:20:34.850Z,1031.29
2016-12-23T04:21:00.409Z,1031.24
2016-12-23T04:21:25.999Z,1031.24
2016-12-23T04:21:51.570Z,1031.31
2016-12-23T04:22:17.122Z,1031.35
2016-12-23T04:22:42.708Z,1031.33
2016-12-23T04:23:08.276Z,1031.33
2016-12-23T04:23:33.828Z,1031.32
2016-12-23T04:23:59.399Z,1031.4
2016-12-23T04:24:24.972Z,1031.36
2016-12-23T04:24:50.529Z,1031.32
2016-12-23T04:25:16.079Z,1031.34
2016-12-23T04:25:41.666Z,1031.33
2016-12-23T04:26:07.290Z,1031.29
2016-12-23T04:26:32.866Z,1031.29
2016-12-23T04:26:58.413Z,1031.24
2016-12-23T04:27:23.973Z,1031.29
2016-12-23T04:27:49.668Z,1031.29
2016-12-23T04:28:15.210Z,1031.28
2016-12-23T04:28:40.780Z,1031.23
2016-12-23T04:29:06.441Z,1031.27
2016-12-23T04:29:32.025Z,1031.28
2016-12-23T04:29:57.591Z,1031.25
2016-12-23T04:30:23.276Z,1031.25
2016-12-23T04:30:48.825Z,1031.25
2016-12-23T04:31:14.400Z,1031.24
2016-12-23T04:31:40.070Z,1031.24
2016-12-23T04:32:05.727Z,1031.25
2016-12-23T04:32:31.280Z,1031.26
2016-12-23T04:32:56.883Z,1031.25
2016-12-23T04:33:22.511Z,1031.28
2016-12-23T04:33:48.125Z,1031.27
2016-12-23T04:34:13.679Z,1031.23
2016-12-23T04:34:39.250Z,1031.28
2016-12-23T04:35:04.906Z,1031.26
2016-12-23T04:35:30.462Z,1031.28
2016-12-23T04:35:56.079Z,1031.28
2016-12-23T04:36:21.714Z,1031.25
2016-12-23T04:36:47.284Z,1031.22
2016-12-23T04:37:12.845Z,1031.26
2016-12-23T04:38:32.964Z,1031.24
2016-12-23T04:38:58.539Z,1031.27
2016-12-23T04:39:24.111Z,1031.23
2016-12-23T04:39:49.669Z,1031.26
2016-12-23T04:40:15.247Z,1031.23
2016-12-23T04:40:40.823Z,1031.22
2016-12-23T04:41:06.389Z,1031.26
2016-12-23T04:41:32.067Z,1031.27
2016-12-23T04:41:57.629Z,1031.26
2016-12-23T04:42:23.174Z,1031.24
2016-12-23T04:42:48.745Z,1031.23
2016-12-23T04:43:14.306Z,1031.24
2016-12-23T04:43:39.888Z,1031.24
2016-12-23T04:44:05.468Z,1031.28
2016-12-23T04:44:31.076Z,1031.2
2016-12-23T04:44:56.620Z,1031.22
2016-12-23T04:45:22.199Z,1031.25
2016-12-23T04:45:47.839Z,1031.21
2016-12-23T04:46:13.404Z,1031.21
2016-12-23T04:47:17.128Z,1031.19
2016-12-23T04:47:42.690Z,1031.22
2016-12-23T04:48:08.240Z,1031.19
2016-12-23T04:48:33.938Z,1031.14
2016-12-23T04:48:59.506Z,1031.11
2016-12-23T04:49:25.079Z,1031.1
2016-12-23T04:49:50.630Z,1031.08
2016-12-23T04:50:16.277Z,1031.1
2016-12-23T04:50:41.834Z,1031.07
2016-12-23T04:51:07.449Z,1031.08
2016-12-23T04:51:33.004Z,1031.11
2016-12-23T04:52:36.781Z,1031.1
2016-12-23T04:53:02.347Z,1031.05
2016-12-23T04:53:27.915Z,1031.09
2016-12-23T04:53:53.475Z,1031.05
2016-12-23T04:54:19.018Z,1031.07
2016-12-23T04:54:44.576Z,1031.06
2016-12-23T04:55:10.128Z,1031.06
2016-12-23T04:55:35.688Z,1031.1
2016-12-23T04:56:01.307Z,1031.1
2016-12-23T04:56:26.938Z,1031.02
2016-12-23T04:56:52.505Z,1031.09
2016-12-23T04:57:18.140Z,1031.09
2016-12-23T04:57:43.773Z,1031.07
2016-12-23T04:58:09.327Z,1031.08
2016-12-23T04:58:34.872Z,1031.1
2016-12-23T04:59:00.508Z,1031.09
2016-12-23T04:59:26.075Z,1031.13
2016-12-23T04:59:51.635Z,1031.15
2016-12-23T05:00:17.206Z,1031.13
2016-12-23T05:00:42.877Z,1031.13
2016-12-23T05:01:08.447Z,1031.17
2016-12-23T05:01:33.982Z,1031.16
2016-12-23T05:01:59.535Z,1031.15
2016-12-23T05:02:25.159Z,1031.15
2016-12-23T05:02:50.743Z,1031.18
2016-12-23T05:03:16.304Z,1031.22
2016-12-23T05:03:41.876Z,1031.17
2016-12-23T05:04:07.525Z,1031.2
2016-12-23T05:04:33.088Z,1031.17
2016-12-23T05:04:58.647Z,1031.15
2016-12-23T05:05:24.335Z,1031.15
2016-12-23T05:05:49.908Z,1031.17
2016-12-23T05:06:15.499Z,1031.16
2016-12-23T05:06:41.077Z,1031.17
2016-12-23T05:07:06.707Z,1031.17
2016-12-23T05:07:32.269Z,1031.19
2016-12-23T05:07:57.841Z,1031.23
2016-12-23T05:08:23.423Z,1031.2
2016-12-23T05:08:49.021Z,1031.21
2016-12-23T05:09:14.625Z,1031.26
2016-12-23T05:09:40.327Z,1031.21
2016-12-23T05:10:05.877Z,1031.2
2016-12-23T05:10:31.451Z,1031.21
2016-12-23T05:10:57.149Z,1031.21
2016-12-23T05:11:22.738Z,1031.21
2016-12-23T05:11:48.300Z,1031.19
2016-12-23T05:12:13.967Z,1031.2
2016-12-23T05:12:39.527Z,1031.25
2016-12-23T05:13:05.095Z,1031.23
2016-12-23T05:13:30.663Z,1031.23
2016-12-23T05:13:56.238Z,1031.17
2016-12-23T05:14:21.798Z,1031.17
2016-12-23T05:14:47.352Z,1031.21
2016-12-23T05:16:01.402Z,1031.23
2016-12-23T05:16:26.952Z,1031.21
2016-12-23T05:16:52.519Z,1031.19
2016-12-23T05:17:18.108Z,1031.22
2016-12-23T05:17:43.663Z,1031.19
2016-12-23T05:18:09.232Z,1031.18
2016-12-23T05:18:34.838Z,1031.19
2016-12-23T05:19:00.422Z,1031.18
2016-12-23T05:19:26.002Z,1031.23
2016-12-23T05:19:51.601Z,1031.17
2016-12-23T05:20:17.159Z,1031.18
2016-12-23T05:20:42.743Z,1031.21
2016-12-23T05:21:08.409Z,1031.2
2016-12-23T05:21:33.966Z,1031.25
2016-12-23T05:21:59.533Z,1031.24
2016-12-23T05:22:25.108Z,1031.24
2016-12-23T05:22:50.688Z,1031.21
2016-12-23T05:23:16.285Z,1031.28
2016-12-23T05:23:41.852Z,1031.32
2016-12-23T05:24:07.418Z,1031.34